Date,TemperatureHighF,TemperatureAvgF,TemperatureLowF,DewpointHighF,DewpointAvgF,DewpointLowF,HumidityHigh,HumidityAvg,HumidityLow,PressureMaxIn,PressureMinIn,WindSpeedMaxMPH,WindSpeedAvgMPH,GustSpeedMaxMPH,PrecipitationSumIn
2013-4-1,48.0,42.6,35.0,39.0,26.3,16.0,82,56,29,0.00,40.00,8,5,17,0.03
2013-4-2,48.0,37.5,26.0,20.0,14.7,10.0,68,42,23,0.00,40.00,6,3,17,0.00
2013-4-3,48.0,38.5,29.0,14.0,11.6,9.0,47,34,20,0.00,40.00,10,5,18,0.00
2013-4-4,54.0,42.5,32.0,25.0,17.7,15.0,51,38,25,0.00,40.00,8,5,12,0.00
2013-4-5,64.0,48.8,34.0,30.0,25.2,21.0,69,43,22,0.00,40.00,9,4,17,0.00
2013-4-6,69.0,53.0,38.0,34.0,27.7,22.0,57,39,25,0.00,40.00,9,6,17,0.00
2013-4-7,73.0,63.8,57.0,54.0,42.5,33.0,80,47,38,0.00,40.00,10,6,21,0.00
2013-4-8,74.0,63.9,55.0,54.0,50.3,44.0,87,63,43,0.00,40.00,11,6,23,0.00
2013-4-9,80.0,69.1,58.0,57.0,53.1,50.0,75,58,37,0.00,40.00,12,5,24,0.00
2013-4-10,83.0,74.1,65.0,61.0,57.3,55.0,76,57,41,0.00,40.00,11,7,25,0.00
2013-4-11,72.0,64.5,58.0,61.0,57.2,53.0,99,79,54,0.00,40.00,9,5,16,0.57
2013-4-12,57.0,47.2,39.0,56.0,39.2,31.0,98,76,52,0.00,40.00,8,5,24,0.46
2013-4-13,61.0,46.3,34.0,34.0,31.8,29.0,90,61,32,0.00,40.00,9,5,23,0.01
2013-4-14,72.0,55.4,39.0,42.0,37.3,31.0,82,54,30,0.00,40.00,8,5,16,0.00
2013-4-15,68.0,61.4,56.0,53.0,49.4,43.0,75,65,51,0.00,40.00,7,5,14,0.00
2013-4-16,82.0,65.8,57.0,63.0,57.5,52.0,98,76,50,0.00,40.00,9,6,25,0.33
2013-4-17,78.0,64.8,58.0,63.0,60.1,58.0,100,86,60,0.00,40.00,8,5,16,0.40
2013-4-18,82.0,72.5,62.0,61.0,56.2,49.0,85,60,36,0.00,40.00,13,9,32,0.01
2013-4-19,74.0,50.0,39.0,61.0,40.0,28.0,96,70,46,0.00,40.00,11,8,24,0.90
2013-4-20,53.0,43.0,32.0,34.0,28.5,24.0,95,61,34,0.00,40.00,7,4,17,0.01
2013-4-21,57.0,45.5,33.0,28.0,26.0,24.0,73,49,30,0.00,40.00,9,5,15,0.00
2013-4-22,70.0,54.9,39.0,39.0,33.3,27.0,64,46,30,0.00,40.00,6,4,13,0.00
2013-4-23,70.0,60.9,48.0,50.0,44.3,37.0,72,55,48,0.00,40.00,8,5,16,0.00
2013-4-24,64.0,51.1,37.0,56.0,44.2,35.0,97,79,54,0.00,40.00,8,5,25,0.80
2013-4-25,60.0,45.9,32.0,36.0,33.3,29.0,97,67,37,0.00,40.00,8,4,21,0.01
2013-4-26,62.0,51.9,38.0,34.0,29.5,26.0,72,45,25,0.00,40.00,7,4,11,0.00
2013-4-27,61.0,53.9,45.0,51.0,41.6,33.0,82,64,49,0.00,40.00,7,4,17,0.00
2013-4-28,69.0,58.1,54.0,59.0,54.9,52.0,97,90,67,0.00,40.00,7,4,16,0.59
2013-4-29,63.0,57.0,53.0,56.0,53.7,52.0,100,90,70,0.00,40.00,4,3,8,0.03
2013-4-30,78.0,65.6,49.0,55.0,51.7,49.0,99,65,37,0.00,40.00,5,4,12,0.00